sensor_id;sensor_type;location;lat;lon;timestamp;pressure;altitude;pressure_sealevel;temperature;humidity
76762;BME280;65705;51.032;13.790;2023-06-10T00:02:11;100113.19;;;20.22;77.93
76762;BME280;65705;51.032;13.790;2023-06-10T00:04:37;100120.41;;;20.22;78.11
76762;BME280;65705;51.032;13.790;2023-06-10T00:07:05;100116.91;;;20.21;78.68
76762;BME280;65705;51.032;13.790;2023-06-10T00:09:37;100118.16;;;20.19;77.98
76762;BME280;65705;51.032;13.790;2023-06-10T00:12:04;100121.41;;;20.21;77.93
76762;BME280;65705;51.032;13.790;2023-06-10T00:14:30;100123.84;;;20.22;78.05
76762;BME280;65705;51.032;13.790;2023-06-10T00:16:56;100128.75;;;20.25;78.40
76762;BME280;65705;51.032;13.790;2023-06-10T00:19:23;100131.66;;;20.24;78.73
76762;BME280;65705;51.032;13.790;2023-06-10T00:21:51;100126.75;;;20.21;78.89
76762;BME280;65705;51.032;13.790;2023-06-10T00:24:18;100129.81;;;20.00;80.17
76762;BME280;65705;51.032;13.790;2023-06-10T00:26:44;100127.50;;;20.03;79.76
76762;BME280;65705;51.032;13.790;2023-06-10T00:29:10;100131.16;;;20.09;79.13
76762;BME280;65705;51.032;13.790;2023-06-10T00:31:37;100140.56;;;20.11;79.05
76762;BME280;65705;51.032;13.790;2023-06-10T00:34:06;100139.16;;;20.09;79.39
76762;BME280;65705;51.032;13.790;2023-06-10T00:36:32;100146.31;;;20.08;79.40
76762;BME280;65705;51.032;13.790;2023-06-10T00:38:58;100148.19;;;20.08;79.40
76762;BME280;65705;51.032;13.790;2023-06-10T00:41:25;100154.16;;;20.03;80.12
76762;BME280;65705;51.032;13.790;2023-06-10T00:43:53;100151.34;;;19.98;80.00
76762;BME280;65705;51.032;13.790;2023-06-10T00:46:20;100162.44;;;19.95;80.49
76762;BME280;65705;51.032;13.790;2023-06-10T00:48:46;100173.97;;;19.89;80.60
76762;BME280;65705;51.032;13.790;2023-06-10T00:51:12;100171.78;;;19.79;81.71
76762;BME280;65705;51.032;13.790;2023-06-10T00:53:40;100169.09;;;19.79;80.70
76762;BME280;65705;51.032;13.790;2023-06-10T00:56:07;100171.38;;;19.76;79.97
76762;BME280;65705;51.032;13.790;2023-06-10T00:58:35;100172.66;;;19.73;77.81
76762;BME280;65705;51.032;13.790;2023-06-10T01:01:01;100176.16;;;19.67;79.55
76762;BME280;65705;51.032;13.790;2023-06-10T01:03:27;100177.00;;;19.68;79.97
76762;BME280;65705;51.032;13.790;2023-06-10T01:06:06;100194.44;;;19.64;80.50
76762;BME280;65705;51.032;13.790;2023-06-10T01:11:42;100196.47;;;19.62;79.45
76762;BME280;65705;51.032;13.790;2023-06-10T01:14:10;100186.50;;;19.51;77.38
76762;BME280;65705;51.032;13.790;2023-06-10T01:16:36;100194.94;;;19.48;78.41
76762;BME280;65705;51.032;13.790;2023-06-10T01:19:03;100194.56;;;19.44;76.99
76762;BME280;65705;51.032;13.790;2023-06-10T01:21:28;100193.78;;;19.37;76.81
76762;BME280;65705;51.032;13.790;2023-06-10T01:23:54;100195.22;;;19.33;77.33
76762;BME280;65705;51.032;13.790;2023-06-10T01:26:24;100202.41;;;19.26;78.04
76762;BME280;65705;51.032;13.790;2023-06-10T01:28:57;100203.63;;;19.30;78.13
76762;BME280;65705;51.032;13.790;2023-06-10T01:34:10;100197.06;;;19.26;77.93
76762;BME280;65705;51.032;13.790;2023-06-10T01:36:41;100198.69;;;19.27;78.28
76762;BME280;65705;51.032;13.790;2023-06-10T01:39:09;100197.06;;;19.26;78.30
76762;BME280;65705;51.032;13.790;2023-06-10T01:41:37;100196.47;;;19.31;77.53
76762;BME280;65705;51.032;13.790;2023-06-10T01:44:03;100201.16;;;19.29;77.19
76762;BME280;65705;51.032;13.790;2023-06-10T01:46:29;100205.50;;;19.23;77.25
76762;BME280;65705;51.032;13.790;2023-06-10T01:48:56;100209.78;;;19.24;77.45
76762;BME280;65705;51.032;13.790;2023-06-10T01:51:21;100209.78;;;19.24;76.90
76762;BME280;65705;51.032;13.790;2023-06-10T01:53:47;100212.28;;;19.13;76.98
76762;BME280;65705;51.032;13.790;2023-06-10T01:56:13;100214.53;;;19.16;75.44
76762;BME280;65705;51.032;13.790;2023-06-10T01:58:43;100221.50;;;19.10;75.60
76762;BME280;65705;51.032;13.790;2023-06-10T02:01:10;100228.47;;;19.11;75.75
76762;BME280;65705;51.032;13.790;2023-06-10T02:03:36;100221.72;;;19.02;76.25
76762;BME280;65705;51.032;13.790;2023-06-10T02:06:02;100225.84;;;19.05;76.17
76762;BME280;65705;51.032;13.790;2023-06-10T02:08:27;100231.38;;;18.97;76.68
76762;BME280;65705;51.032;13.790;2023-06-10T02:10:53;100234.03;;;18.97;77.13
76762;BME280;65705;51.032;13.790;2023-06-10T02:13:19;100228.91;;;18.95;77.43
76762;BME280;65705;51.032;13.790;2023-06-10T02:15:53;100236.50;;;18.91;78.17
76762;BME280;65705;51.032;13.790;2023-06-10T02:18:20;100229.00;;;18.82;78.93
76762;BME280;65705;51.032;13.790;2023-06-10T02:20:46;100229.38;;;18.79;79.17
76762;BME280;65705;51.032;13.790;2023-06-10T02:23:12;100235.13;;;18.76;79.90
76762;BME280;65705;51.032;13.790;2023-06-10T02:25:38;100239.41;;;18.77;79.97
76762;BME280;65705;51.032;13.790;2023-06-10T02:28:04;100234.69;;;18.79;79.36
76762;BME280;65705;51.032;13.790;2023-06-10T02:30:29;100236.75;;;18.77;79.57
76762;BME280;65705;51.032;13.790;2023-06-10T02:32:55;100243.53;;;18.73;79.38
76762;BME280;65705;51.032;13.790;2023-06-10T02:35:23;100239.81;;;18.80;78.40
76762;BME280;65705;51.032;13.790;2023-06-10T02:37:50;100249.03;;;18.71;78.82
76762;BME280;65705;51.032;13.790;2023-06-10T02:40:18;100245.78;;;18.69;78.88
76762;BME280;65705;51.032;13.790;2023-06-10T02:42:44;100244.53;;;18.72;78.82
76762;BME280;65705;51.032;13.790;2023-06-10T02:45:09;100251.09;;;18.69;79.83
76762;BME280;65705;51.032;13.790;2023-06-10T02:47:39;100244.31;;;18.73;78.92
76762;BME280;65705;51.032;13.790;2023-06-10T02:50:06;100239.84;;;18.74;79.03
76762;BME280;65705;51.032;13.790;2023-06-10T02:52:37;100239.06;;;18.60;79.95
76762;BME280;65705;51.032;13.790;2023-06-10T02:55:04;100231.91;;;18.54;80.37
76762;BME280;65705;51.032;13.790;2023-06-10T02:57:31;100226.38;;;18.56;80.08
76762;BME280;65705;51.032;13.790;2023-06-10T02:59:57;100235.78;;;18.58;80.29
76762;BME280;65705;51.032;13.790;2023-06-10T03:02:24;100229.63;;;18.58;79.97
76762;BME280;65705;51.032;13.790;2023-06-10T03:04:55;100228.63;;;18.52;80.48
76762;BME280;65705;51.032;13.790;2023-06-10T03:07:21;100231.72;;;18.49;80.47
76762;BME280;65705;51.032;13.790;2023-06-10T03:09:48;100240.69;;;18.48;80.13
76762;BME280;65705;51.032;13.790;2023-06-10T03:12:14;100236.81;;;18.51;80.01
76762;BME280;65705;51.032;13.790;2023-06-10T03:14:45;100244.97;;;18.56;79.74
76762;BME280;65705;51.032;13.790;2023-06-10T03:17:10;100248.03;;;18.59;79.63
76762;BME280;65705;51.032;13.790;2023-06-10T03:19:39;100244.16;;;18.62;79.31
76762;BME280;65705;51.032;13.790;2023-06-10T03:22:13;100250.88;;;18.64;79.07
76762;BME280;65705;51.032;13.790;2023-06-10T03:24:52;100245.19;;;18.67;79.12
76762;BME280;65705;51.032;13.790;2023-06-10T03:27:19;100244.75;;;18.70;78.90
76762;BME280;65705;51.032;13.790;2023-06-10T03:29:48;100247.59;;;18.82;78.56
76762;BME280;65705;51.032;13.790;2023-06-10T03:32:15;100249.84;;;18.85;78.42
76762;BME280;65705;51.032;13.790;2023-06-10T03:34:41;100253.28;;;18.92;77.97
76762;BME280;65705;51.032;13.790;2023-06-10T03:37:08;100253.50;;;18.84;78.61
76762;BME280;65705;51.032;13.790;2023-06-10T03:39:34;100255.97;;;18.85;77.89
76762;BME280;65705;51.032;13.790;2023-06-10T03:42:01;100256.59;;;18.87;78.07
76762;BME280;65705;51.032;13.790;2023-06-10T03:44:28;100261.47;;;18.90;78.34
76762;BME280;65705;51.032;13.790;2023-06-10T03:46:55;100255.75;;;19.00;77.29
76762;BME280;65705;51.032;13.790;2023-06-10T03:49:21;100253.66;;;19.02;77.50
76762;BME280;65705;51.032;13.790;2023-06-10T03:51:54;100259.81;;;19.03;76.47
76762;BME280;65705;51.032;13.790;2023-06-10T03:54:20;100262.28;;;18.98;76.91
76762;BME280;65705;51.032;13.790;2023-06-10T03:56:46;100262.88;;;19.06;76.99
76762;BME280;65705;51.032;13.790;2023-06-10T03:59:14;100267.75;;;19.09;77.01
76762;BME280;65705;51.032;13.790;2023-06-10T04:01:39;100272.66;;;19.19;76.63
76762;BME280;65705;51.032;13.790;2023-06-10T04:04:07;100266.50;;;19.25;76.54
76762;BME280;65705;51.032;13.790;2023-06-10T04:06:34;100269.97;;;19.32;76.24
76762;BME280;65705;51.032;13.790;2023-06-10T04:09:00;100276.31;;;19.37;75.41
76762;BME280;65705;51.032;13.790;2023-06-10T04:11:27;100282.41;;;19.44;75.32
76762;BME280;65705;51.032;13.790;2023-06-10T04:13:57;100280.31;;;19.53;75.53
76762;BME280;65705;51.032;13.790;2023-06-10T04:16:23;100285.81;;;19.58;75.20
76762;BME280;65705;51.032;13.790;2023-06-10T04:18:49;100293.69;;;19.40;75.00
76762;BME280;65705;51.032;13.790;2023-06-10T04:21:16;100283.41;;;19.43;74.93
76762;BME280;65705;51.032;13.790;2023-06-10T04:23:42;100280.13;;;19.48;74.98
76762;BME280;65705;51.032;13.790;2023-06-10T04:26:09;100282.75;;;19.54;74.98
76762;BME280;65705;51.032;13.790;2023-06-10T04:28:38;100280.28;;;19.59;74.83
76762;BME280;65705;51.032;13.790;2023-06-10T04:31:04;100285.97;;;19.63;74.20
76762;BME280;65705;51.032;13.790;2023-06-10T04:33:30;100279.66;;;19.64;74.45
76762;BME280;65705;51.032;13.790;2023-06-10T04:35:57;100284.59;;;19.60;74.47
76762;BME280;65705;51.032;13.790;2023-06-10T04:38:25;100278.41;;;19.66;74.26
76762;BME280;65705;51.032;13.790;2023-06-10T04:40:52;100278.16;;;19.74;73.91
76762;BME280;65705;51.032;13.790;2023-06-10T04:43:20;100285.69;;;19.84;73.38
76762;BME280;65705;51.032;13.790;2023-06-10T04:45:46;100285.84;;;19.89;73.45
76762;BME280;65705;51.032;13.790;2023-06-10T04:48:13;100279.06;;;19.93;72.96
76762;BME280;65705;51.032;13.790;2023-06-10T04:50:39;100279.25;;;19.98;72.91
76762;BME280;65705;51.032;13.790;2023-06-10T04:53:05;100283.91;;;20.03;72.77
76762;BME280;65705;51.032;13.790;2023-06-10T04:55:32;100290.22;;;20.08;72.60
76762;BME280;65705;51.032;13.790;2023-06-10T04:57:59;100283.44;;;20.12;72.05
76762;BME280;65705;51.032;13.790;2023-06-10T05:00:24;100289.38;;;20.14;72.09
76762;BME280;65705;51.032;13.790;2023-06-10T05:02:50;100288.13;;;20.17;71.17
76762;BME280;65705;51.032;13.790;2023-06-10T05:05:17;100296.97;;;20.17;71.96
76762;BME280;65705;51.032;13.790;2023-06-10T05:07:43;100293.47;;;20.17;70.93
76762;BME280;65705;51.032;13.790;2023-06-10T05:10:10;100292.88;;;20.15;71.36
76762;BME280;65705;51.032;13.790;2023-06-10T05:12:38;100288.53;;;20.14;71.42
76762;BME280;65705;51.032;13.790;2023-06-10T05:15:06;100299.41;;;20.19;71.01
76762;BME280;65705;51.032;13.790;2023-06-10T05:17:32;100290.56;;;20.25;70.54
76762;BME280;65705;51.032;13.790;2023-06-10T05:19:58;100295.22;;;20.29;69.94
76762;BME280;65705;51.032;13.790;2023-06-10T05:22:23;100297.03;;;20.35;69.97
76762;BME280;65705;51.032;13.790;2023-06-10T05:24:53;100301.72;;;20.40;70.08
76762;BME280;65705;51.032;13.790;2023-06-10T05:27:19;100300.91;;;20.39;69.67
76762;BME280;65705;51.032;13.790;2023-06-10T05:29:45;100301.75;;;20.33;69.71
76762;BME280;65705;51.032;13.790;2023-06-10T05:32:13;100302.03;;;20.25;70.61
76762;BME280;65705;51.032;13.790;2023-06-10T05:34:39;100307.22;;;20.20;71.28
76762;BME280;65705;51.032;13.790;2023-06-10T05:37:05;100299.44;;;20.12;71.55
76762;BME280;65705;51.032;13.790;2023-06-10T05:39:31;100301.28;;;20.12;71.51
76762;BME280;65705;51.032;13.790;2023-06-10T05:41:57;100302.69;;;20.14;71.75
76762;BME280;65705;51.032;13.790;2023-06-10T05:44:24;100304.72;;;20.19;71.40
76762;BME280;65705;51.032;13.790;2023-06-10T05:46:50;100307.38;;;20.25;71.44
76762;BME280;65705;51.032;13.790;2023-06-10T05:49:16;100309.97;;;20.32;71.33
76762;BME280;65705;51.032;13.790;2023-06-10T05:51:42;100306.06;;;20.34;70.82
76762;BME280;65705;51.032;13.790;2023-06-10T05:54:08;100315.84;;;20.40;71.01
76762;BME280;65705;51.032;13.790;2023-06-10T05:56:34;100306.16;;;20.46;70.65
76762;BME280;65705;51.032;13.790;2023-06-10T05:58:59;100315.38;;;20.50;70.00
76762;BME280;65705;51.032;13.790;2023-06-10T06:01:25;100308.94;;;20.57;69.80
76762;BME280;65705;51.032;13.790;2023-06-10T06:03:51;100304.16;;;20.66;68.91
76762;BME280;65705;51.032;13.790;2023-06-10T06:06:17;100305.50;;;20.75;68.25
76762;BME280;65705;51.032;13.790;2023-06-10T06:08:46;100302.38;;;20.78;68.05
76762;BME280;65705;51.032;13.790;2023-06-10T06:11:11;100304.63;;;20.81;67.58
76762;BME280;65705;51.032;13.790;2023-06-10T06:13:37;100308.78;;;20.77;66.26
76762;BME280;65705;51.032;13.790;2023-06-10T06:16:03;100311.66;;;20.75;64.63
76762;BME280;65705;51.032;13.790;2023-06-10T06:18:29;100312.31;;;20.71;64.63
76762;BME280;65705;51.032;13.790;2023-06-10T06:20:54;100319.47;;;20.70;65.32
76762;BME280;65705;51.032;13.790;2023-06-10T06:23:20;100310.53;;;20.65;65.50
76762;BME280;65705;51.032;13.790;2023-06-10T06:25:46;100316.28;;;20.62;65.50
76762;BME280;65705;51.032;13.790;2023-06-10T06:28:11;100317.94;;;20.63;65.59
76762;BME280;65705;51.032;13.790;2023-06-10T06:30:37;100321.19;;;20.65;65.75
76762;BME280;65705;51.032;13.790;2023-06-10T06:33:03;100319.56;;;20.64;66.31
76762;BME280;65705;51.032;13.790;2023-06-10T06:35:35;100316.88;;;20.64;66.20
76762;BME280;65705;51.032;13.790;2023-06-10T06:38:00;100315.50;;;20.61;65.86
76762;BME280;65705;51.032;13.790;2023-06-10T06:40:28;100311.41;;;20.59;65.42
76762;BME280;65705;51.032;13.790;2023-06-10T06:42:54;100320.38;;;20.64;65.64
76762;BME280;65705;51.032;13.790;2023-06-10T06:45:36;100329.78;;;20.67;65.52
76762;BME280;65705;51.032;13.790;2023-06-10T06:48:02;100333.66;;;20.71;64.48
76762;BME280;65705;51.032;13.790;2023-06-10T06:50:28;100335.31;;;20.72;64.44
76762;BME280;65705;51.032;13.790;2023-06-10T06:52:53;100332.63;;;20.72;64.34
76762;BME280;65705;51.032;13.790;2023-06-10T06:55:19;100341.63;;;20.77;65.05
76762;BME280;65705;51.032;13.790;2023-06-10T06:57:45;100349.91;;;20.87;64.94
76762;BME280;65705;51.032;13.790;2023-06-10T07:00:12;100347.19;;;20.94;64.76
76762;BME280;65705;51.032;13.790;2023-06-10T07:02:37;100352.66;;;21.06;64.54
76762;BME280;65705;51.032;13.790;2023-06-10T07:05:03;100358.00;;;21.24;63.26
76762;BME280;65705;51.032;13.790;2023-06-10T07:07:29;100362.03;;;21.33;63.20
76762;BME280;65705;51.032;13.790;2023-06-10T07:09:55;100369.34;;;21.37;61.96
76762;BME280;65705;51.032;13.790;2023-06-10T07:12:20;100368.47;;;21.43;61.39
76762;BME280;65705;51.032;13.790;2023-06-10T07:14:50;100365.34;;;21.46;60.70
76762;BME280;65705;51.032;13.790;2023-06-10T07:17:17;100366.53;;;21.50;60.54
76762;BME280;65705;51.032;13.790;2023-06-10T07:19:44;100373.88;;;21.55;60.52
76762;BME280;65705;51.032;13.790;2023-06-10T07:22:10;100368.69;;;21.60;60.54
76762;BME280;65705;51.032;13.790;2023-06-10T07:24:35;100369.34;;;21.73;59.98
76762;BME280;65705;51.032;13.790;2023-06-10T07:27:01;100373.88;;;21.73;59.84
76762;BME280;65705;51.032;13.790;2023-06-10T07:29:27;100370.59;;;21.71;60.12
76762;BME280;65705;51.032;13.790;2023-06-10T07:31:52;100377.13;;;21.75;60.65
76762;BME280;65705;51.032;13.790;2023-06-10T07:34:19;100379.75;;;21.63;60.09
76762;BME280;65705;51.032;13.790;2023-06-10T07:36:44;100376.50;;;21.61;61.28
76762;BME280;65705;51.032;13.790;2023-06-10T07:39:10;100382.78;;;21.67;61.47
76762;BME280;65705;51.032;13.790;2023-06-10T07:41:36;100380.25;;;21.72;61.95
76762;BME280;65705;51.032;13.790;2023-06-10T07:44:02;100383.06;;;21.77;61.56
76762;BME280;65705;51.032;13.790;2023-06-10T07:46:28;100382.59;;;21.86;61.31
76762;BME280;65705;51.032;13.790;2023-06-10T07:48:54;100390.28;;;21.94;61.84
76762;BME280;65705;51.032;13.790;2023-06-10T07:51:21;100385.66;;;22.02;61.12
76762;BME280;65705;51.032;13.790;2023-06-10T07:53:46;100382.44;;;22.11;61.10
76762;BME280;65705;51.032;13.790;2023-06-10T07:56:12;100380.38;;;22.13;60.13
76762;BME280;65705;51.032;13.790;2023-06-10T07:58:38;100384.59;;;22.21;60.54
76762;BME280;65705;51.032;13.790;2023-06-10T08:01:04;100387.38;;;22.26;60.14
76762;BME280;65705;51.032;13.790;2023-06-10T08:03:30;100390.78;;;22.33;60.00
76762;BME280;65705;51.032;13.790;2023-06-10T08:05:55;100383.22;;;22.41;60.20
76762;BME280;65705;51.032;13.790;2023-06-10T08:08:21;100385.84;;;22.48;59.62
76762;BME280;65705;51.032;13.790;2023-06-10T08:10:46;100385.88;;;22.59;59.65
76762;BME280;65705;51.032;13.790;2023-06-10T08:13:13;100392.28;;;22.70;60.10
76762;BME280;65705;51.032;13.790;2023-06-10T08:15:39;100387.88;;;22.75;60.10
76762;BME280;65705;51.032;13.790;2023-06-10T08:18:04;100397.06;;;22.79;60.38
76762;BME280;65705;51.032;13.790;2023-06-10T08:20:30;100396.38;;;22.84;60.78
76762;BME280;65705;51.032;13.790;2023-06-10T08:22:56;100391.16;;;22.89;59.93
76762;BME280;65705;51.032;13.790;2023-06-10T08:25:21;100389.03;;;22.91;59.98
76762;BME280;65705;51.032;13.790;2023-06-10T08:27:48;100394.53;;;22.84;59.48
76762;BME280;65705;51.032;13.790;2023-06-10T08:30:13;100399.03;;;22.84;59.51
76762;BME280;65705;51.032;13.790;2023-06-10T08:32:39;100398.69;;;22.80;59.18
76762;BME280;65705;51.032;13.790;2023-06-10T08:35:05;100393.94;;;22.94;59.50
76762;BME280;65705;51.032;13.790;2023-06-10T08:37:31;100391.63;;;22.97;59.65
76762;BME280;65705;51.032;13.790;2023-06-10T08:39:57;100386.16;;;23.04;59.45
76762;BME280;65705;51.032;13.790;2023-06-10T08:42:26;100381.59;;;23.16;59.02
76762;BME280;65705;51.032;13.790;2023-06-10T08:44:55;100378.09;;;23.27;58.93
76762;BME280;65705;51.032;13.790;2023-06-10T08:47:23;100371.59;;;23.35;58.38
76762;BME280;65705;51.032;13.790;2023-06-10T08:49:50;100376.81;;;23.41;58.18
76762;BME280;65705;51.032;13.790;2023-06-10T08:52:19;100380.91;;;23.55;57.72
76762;BME280;65705;51.032;13.790;2023-06-10T08:54:58;100384.94;;;23.69;57.69
76762;BME280;65705;51.032;13.790;2023-06-10T08:57:26;100384.63;;;23.82;56.57
76762;BME280;65705;51.032;13.790;2023-06-10T08:59:53;100383.13;;;23.86;56.41
76762;BME280;65705;51.032;13.790;2023-06-10T09:02:20;100386.81;;;23.97;56.12
76762;BME280;65705;51.032;13.790;2023-06-10T09:04:47;100381.81;;;24.00;55.85
76762;BME280;65705;51.032;13.790;2023-06-10T09:07:16;100381.44;;;24.09;55.90
76762;BME280;65705;51.032;13.790;2023-06-10T09:09:43;100376.75;;;24.16;55.88
76762;BME280;65705;51.032;13.790;2023-06-10T09:12:10;100374.72;;;24.23;55.89
76762;BME280;65705;51.032;13.790;2023-06-10T09:14:36;100375.31;;;24.25;55.81
76762;BME280;65705;51.032;13.790;2023-06-10T09:17:03;100372.13;;;24.28;55.88
76762;BME280;65705;51.032;13.790;2023-06-10T09:19:29;100376.47;;;24.29;56.12
76762;BME280;65705;51.032;13.790;2023-06-10T09:21:55;100379.72;;;24.31;55.77
76762;BME280;65705;51.032;13.790;2023-06-10T09:24:24;100377.91;;;24.36;55.88
76762;BME280;65705;51.032;13.790;2023-06-10T09:26:50;100380.69;;;24.41;55.77
76762;BME280;65705;51.032;13.790;2023-06-10T09:29:16;100374.59;;;24.46;55.55
76762;BME280;65705;51.032;13.790;2023-06-10T09:31:43;100373.38;;;24.53;55.53
76762;BME280;65705;51.032;13.790;2023-06-10T09:34:14;100371.84;;;24.57;54.81
76762;BME280;65705;51.032;13.790;2023-06-10T09:36:41;100378.13;;;24.63;54.85
76762;BME280;65705;51.032;13.790;2023-06-10T09:39:17;100375.25;;;24.69;54.35
76762;BME280;65705;51.032;13.790;2023-06-10T09:41:45;100376.75;;;24.77;54.58
76762;BME280;65705;51.032;13.790;2023-06-10T09:44:19;100376.00;;;24.81;54.84
76762;BME280;65705;51.032;13.790;2023-06-10T09:46:46;100382.28;;;24.87;54.64
76762;BME280;65705;51.032;13.790;2023-06-10T09:49:13;100369.56;;;24.99;54.44
76762;BME280;65705;51.032;13.790;2023-06-10T09:51:53;100373.41;;;25.03;53.91
76762;BME280;65705;51.032;13.790;2023-06-10T09:54:20;100370.00;;;24.91;54.50
76762;BME280;65705;51.032;13.790;2023-06-10T09:56:50;100373.91;;;24.83;53.97
76762;BME280;65705;51.032;13.790;2023-06-10T09:59:28;100376.19;;;24.75;54.56
76762;BME280;65705;51.032;13.790;2023-06-10T10:01:56;100381.00;;;24.73;53.82
76762;BME280;65705;51.032;13.790;2023-06-10T10:04:26;100376.00;;;24.81;53.50
76762;BME280;65705;51.032;13.790;2023-06-10T10:06:52;100373.06;;;24.83;52.48
76762;BME280;65705;51.032;13.790;2023-06-10T10:09:18;100363.56;;;24.92;52.23
76762;BME280;65705;51.032;13.790;2023-06-10T10:11:44;100358.81;;;24.99;53.06
76762;BME280;65705;51.032;13.790;2023-06-10T10:14:10;100363.72;;;25.02;53.34
76762;BME280;65705;51.032;13.790;2023-06-10T10:16:41;100358.34;;;25.02;53.59
76762;BME280;65705;51.032;13.790;2023-06-10T10:19:11;100365.00;;;24.99;52.14
76762;BME280;65705;51.032;13.790;2023-06-10T10:21:50;100366.81;;;24.94;53.17
76762;BME280;65705;51.032;13.790;2023-06-10T10:24:20;100376.09;;;24.86;54.05
76762;BME280;65705;51.032;13.790;2023-06-10T10:26:48;100381.56;;;24.75;54.50
76762;BME280;65705;51.032;13.790;2023-06-10T10:29:24;100372.94;;;24.73;55.30
76762;BME280;65705;51.032;13.790;2023-06-10T10:31:51;100371.06;;;24.73;54.99
76762;BME280;65705;51.032;13.790;2023-06-10T10:34:50;100367.72;;;24.83;54.00
76762;BME280;65705;51.032;13.790;2023-06-10T10:37:19;100378.25;;;25.06;54.13
76762;BME280;65705;51.032;13.790;2023-06-10T10:39:45;100368.94;;;25.30;52.63
76762;BME280;65705;51.032;13.790;2023-06-10T10:42:12;100368.69;;;25.48;51.99
76762;BME280;65705;51.032;13.790;2023-06-10T10:44:38;100367.03;;;25.69;51.23
76762;BME280;65705;51.032;13.790;2023-06-10T10:47:07;100366.50;;;25.88;50.54
76762;BME280;65705;51.032;13.790;2023-06-10T10:49:35;100362.50;;;25.96;49.54
76762;BME280;65705;51.032;13.790;2023-06-10T10:52:02;100363.06;;;25.98;47.96
76762;BME280;65705;51.032;13.790;2023-06-10T10:54:35;100364.59;;;26.11;48.40
76762;BME280;65705;51.032;13.790;2023-06-10T10:57:17;100371.97;;;26.20;45.04
76762;BME280;65705;51.032;13.790;2023-06-10T10:59:56;100365.75;;;26.20;46.00
76762;BME280;65705;51.032;13.790;2023-06-10T11:05:01;100352.28;;;26.20;45.20
76762;BME280;65705;51.032;13.790;2023-06-10T11:07:32;100354.59;;;26.06;44.71
76762;BME280;65705;51.032;13.790;2023-06-10T11:09:59;100360.22;;;26.05;44.35
76762;BME280;65705;51.032;13.790;2023-06-10T11:12:26;100354.41;;;25.91;44.91
76762;BME280;65705;51.032;13.790;2023-06-10T11:14:55;100353.34;;;25.92;45.02
76762;BME280;65705;51.032;13.790;2023-06-10T11:17:22;100344.50;;;25.96;44.87
76762;BME280;65705;51.032;13.790;2023-06-10T11:19:49;100344.09;;;25.83;44.50
76762;BME280;65705;51.032;13.790;2023-06-10T11:22:17;100344.09;;;25.83;44.42
76762;BME280;65705;51.032;13.790;2023-06-10T11:24:49;100337.06;;;25.82;44.35
76762;BME280;65705;51.032;13.790;2023-06-10T11:27:23;100332.94;;;25.74;44.41
76762;BME280;65705;51.032;13.790;2023-06-10T11:32:33;100333.09;;;25.84;45.52
76762;BME280;65705;51.032;13.790;2023-06-10T11:34:59;100328.00;;;25.88;44.59
76762;BME280;65705;51.032;13.790;2023-06-10T11:37:25;100323.03;;;26.01;44.75
76762;BME280;65705;51.032;13.790;2023-06-10T11:39:52;100326.41;;;26.14;44.89
76762;BME280;65705;51.032;13.790;2023-06-10T11:42:19;100327.50;;;26.18;44.52
76762;BME280;65705;51.032;13.790;2023-06-10T11:44:52;100323.28;;;26.27;44.23
76762;BME280;65705;51.032;13.790;2023-06-10T11:47:19;100320.16;;;26.35;44.19
76762;BME280;65705;51.032;13.790;2023-06-10T11:49:46;100313.94;;;26.34;43.79
76762;BME280;65705;51.032;13.790;2023-06-10T11:52:30;100321.00;;;26.40;43.75
76762;BME280;65705;51.032;13.790;2023-06-10T11:55:03;100309.16;;;26.41;43.45
76762;BME280;65705;51.032;13.790;2023-06-10T11:57:34;100304.09;;;26.50;43.06
76762;BME280;65705;51.032;13.790;2023-06-10T12:00:07;100297.84;;;26.44;41.36
76762;BME280;65705;51.032;13.790;2023-06-10T12:02:37;100322.25;;;26.28;41.11
76762;BME280;65705;51.032;13.790;2023-06-10T12:05:20;100307.94;;;26.22;41.12
76762;BME280;65705;51.032;13.790;2023-06-10T12:07:46;100316.34;;;26.31;41.93
76762;BME280;65705;51.032;13.790;2023-06-10T12:10:12;100309.69;;;26.38;42.10
76762;BME280;65705;51.032;13.790;2023-06-10T12:12:40;100310.03;;;26.52;41.92
76762;BME280;65705;51.032;13.790;2023-06-10T12:15:07;100308.97;;;26.53;41.25
76762;BME280;65705;51.032;13.790;2023-06-10T12:20:00;100300.31;;;26.46;40.38
76762;BME280;65705;51.032;13.790;2023-06-10T12:22:26;100304.66;;;26.52;40.82
76762;BME280;65705;51.032;13.790;2023-06-10T12:25:00;100304.16;;;26.55;39.92
76762;BME280;65705;51.032;13.790;2023-06-10T12:27:27;100297.69;;;26.56;40.63
76762;BME280;65705;51.032;13.790;2023-06-10T12:29:55;100290.72;;;26.60;40.55
76762;BME280;65705;51.032;13.790;2023-06-10T12:32:35;100283.13;;;26.57;40.48
76762;BME280;65705;51.032;13.790;2023-06-10T12:35:04;100283.44;;;26.60;40.17
76762;BME280;65705;51.032;13.790;2023-06-10T12:37:31;100286.50;;;26.69;40.25
76762;BME280;65705;51.032;13.790;2023-06-10T12:40:00;100291.50;;;26.60;39.85
76762;BME280;65705;51.032;13.790;2023-06-10T12:42:29;100288.59;;;26.62;40.12
76762;BME280;65705;51.032;13.790;2023-06-10T12:44:56;100274.31;;;26.61;39.85
76762;BME280;65705;51.032;13.790;2023-06-10T12:47:36;100289.31;;;26.52;40.96
76762;BME280;65705;51.032;13.790;2023-06-10T12:50:05;100275.06;;;26.57;40.32
76762;BME280;65705;51.032;13.790;2023-06-10T12:52:31;100273.19;;;26.57;40.76
76762;BME280;65705;51.032;13.790;2023-06-10T12:54:58;100271.28;;;26.53;40.27
76762;BME280;65705;51.032;13.790;2023-06-10T12:57:24;100263.25;;;26.63;41.56